sensor_id;sensor_type;location;lat;lon;timestamp;temperature;humidity
35381;DHT22;21486;51.916;8.378;2024-03-17T00:02:02;6.10;99.90
35381;DHT22;21486;51.916;8.378;2024-03-17T00:04:28;6.10;99.90
35381;DHT22;21486;51.916;8.378;2024-03-17T00:06:53;6.10;99.90
35381;DHT22;21486;51.916;8.378;2024-03-17T00:09:20;6.10;99.90
35381;DHT22;21486;51.916;8.378;2024-03-17T00:11:45;6.10;99.90
35381;DHT22;21486;51.916;8.378;2024-03-17T00:14:11;6.10;99.90
35381;DHT22;21486;51.916;8.378;2024-03-17T00:16:37;6.20;99.90
35381;DHT22;21486;51.916;8.378;2024-03-17T00:19:02;6.20;99.90
35381;DHT22;21486;51.916;8.378;2024-03-17T00:21:28;6.20;99.90
35381;DHT22;21486;51.916;8.378;2024-03-17T00:23:54;6.20;99.90
35381;DHT22;21486;51.916;8.378;2024-03-17T00:26:20;6.20;99.90
35381;DHT22;21486;51.916;8.378;2024-03-17T00:28:46;6.10;99.90
35381;DHT22;21486;51.916;8.378;2024-03-17T00:31:13;6.20;99.90
35381;DHT22;21486;51.916;8.378;2024-03-17T00:33:40;6.20;99.90
35381;DHT22;21486;51.916;8.378;2024-03-17T00:36:06;6.20;99.90
35381;DHT22;21486;51.916;8.378;2024-03-17T00:38:31;6.10;99.90
35381;DHT22;21486;51.916;8.378;2024-03-17T00:40:57;6.10;99.90
35381;DHT22;21486;51.916;8.378;2024-03-17T00:43:22;6.00;99.90
35381;DHT22;21486;51.916;8.378;2024-03-17T00:45:52;5.90;99.90
35381;DHT22;21486;51.916;8.378;2024-03-17T00:48:17;5.90;99.90
35381;DHT22;21486;51.916;8.378;2024-03-17T00:50:43;5.90;99.90
35381;DHT22;21486;51.916;8.378;2024-03-17T00:53:10;5.80;99.90
35381;DHT22;21486;51.916;8.378;2024-03-17T00:55:36;5.70;99.90
35381;DHT22;21486;51.916;8.378;2024-03-17T00:58:01;5.70;99.90
35381;DHT22;21486;51.916;8.378;2024-03-17T01:00:27;5.70;99.90
35381;DHT22;21486;51.916;8.378;2024-03-17T01:02:52;5.60;99.90
35381;DHT22;21486;51.916;8.378;2024-03-17T01:05:18;5.60;99.90
35381;DHT22;21486;51.916;8.378;2024-03-17T01:07:43;5.50;99.90
35381;DHT22;21486;51.916;8.378;2024-03-17T01:10:09;5.40;99.90
35381;DHT22;21486;51.916;8.378;2024-03-17T01:12:35;5.40;99.90
35381;DHT22;21486;51.916;8.378;2024-03-17T01:15:03;5.40;99.90
35381;DHT22;21486;51.916;8.378;2024-03-17T01:17:29;5.30;99.90
35381;DHT22;21486;51.916;8.378;2024-03-17T01:19:55;5.30;99.90
35381;DHT22;21486;51.916;8.378;2024-03-17T01:22:21;5.30;99.90
35381;DHT22;21486;51.916;8.378;2024-03-17T01:24:47;5.20;99.90
35381;DHT22;21486;51.916;8.378;2024-03-17T01:27:13;5.20;99.90
35381;DHT22;21486;51.916;8.378;2024-03-17T01:29:44;5.10;99.90
35381;DHT22;21486;51.916;8.378;2024-03-17T01:33:02;5.00;99.90
35381;DHT22;21486;51.916;8.378;2024-03-17T01:35:29;5.00;99.90
35381;DHT22;21486;51.916;8.378;2024-03-17T01:37:55;4.90;99.90
35381;DHT22;21486;51.916;8.378;2024-03-17T01:40:20;4.90;99.90
35381;DHT22;21486;51.916;8.378;2024-03-17T01:42:46;4.80;99.90
35381;DHT22;21486;51.916;8.378;2024-03-17T01:45:33;4.80;99.90
35381;DHT22;21486;51.916;8.378;2024-03-17T01:48:01;4.80;99.90
35381;DHT22;21486;51.916;8.378;2024-03-17T01:50:35;4.80;99.90
35381;DHT22;21486;51.916;8.378;2024-03-17T01:53:03;4.70;99.90
35381;DHT22;21486;51.916;8.378;2024-03-17T01:55:33;4.70;99.90
35381;DHT22;21486;51.916;8.378;2024-03-17T01:58:00;4.60;99.90
35381;DHT22;21486;51.916;8.378;2024-03-17T02:00:26;4.60;99.90
35381;DHT22;21486;51.916;8.378;2024-03-17T02:02:54;4.60;99.90
35381;DHT22;21486;51.916;8.378;2024-03-17T02:05:19;4.50;99.90
35381;DHT22;21486;51.916;8.378;2024-03-17T02:07:45;4.40;99.90
35381;DHT22;21486;51.916;8.378;2024-03-17T02:10:10;4.40;99.90
35381;DHT22;21486;51.916;8.378;2024-03-17T02:12:37;4.40;99.90
35381;DHT22;21486;51.916;8.378;2024-03-17T02:15:03;4.40;99.90
35381;DHT22;21486;51.916;8.378;2024-03-17T02:17:33;4.30;99.90
35381;DHT22;21486;51.916;8.378;2024-03-17T02:19:59;4.30;99.90
35381;DHT22;21486;51.916;8.378;2024-03-17T02:22:26;4.30;99.90
35381;DHT22;21486;51.916;8.378;2024-03-17T02:24:53;4.30;99.90
35381;DHT22;21486;51.916;8.378;2024-03-17T02:27:18;4.30;99.90
35381;DHT22;21486;51.916;8.378;2024-03-17T02:29:44;4.30;99.90
35381;DHT22;21486;51.916;8.378;2024-03-17T02:32:10;4.30;99.90
35381;DHT22;21486;51.916;8.378;2024-03-17T02:34:37;4.20;99.90
35381;DHT22;21486;51.916;8.378;2024-03-17T02:37:04;4.20;99.90
35381;DHT22;21486;51.916;8.378;2024-03-17T02:39:31;4.20;99.90
35381;DHT22;21486;51.916;8.378;2024-03-17T02:42:00;4.20;99.90
35381;DHT22;21486;51.916;8.378;2024-03-17T02:44:26;4.20;99.90
35381;DHT22;21486;51.916;8.378;2024-03-17T02:46:51;4.10;99.90
35381;DHT22;21486;51.916;8.378;2024-03-17T02:49:17;4.10;99.90
35381;DHT22;21486;51.916;8.378;2024-03-17T02:51:43;4.10;99.90
35381;DHT22;21486;51.916;8.378;2024-03-17T02:54:09;4.10;99.90
35381;DHT22;21486;51.916;8.378;2024-03-17T02:56:35;4.10;99.90
35381;DHT22;21486;51.916;8.378;2024-03-17T02:59:00;4.10;99.90
35381;DHT22;21486;51.916;8.378;2024-03-17T03:01:26;4.10;99.90
35381;DHT22;21486;51.916;8.378;2024-03-17T03:03:51;4.10;99.90
35381;DHT22;21486;51.916;8.378;2024-03-17T03:06:17;4.10;99.90
35381;DHT22;21486;51.916;8.378;2024-03-17T03:08:45;4.10;99.90
35381;DHT22;21486;51.916;8.378;2024-03-17T03:11:15;4.10;99.90
35381;DHT22;21486;51.916;8.378;2024-03-17T03:13:42;4.20;99.90
35381;DHT22;21486;51.916;8.378;2024-03-17T03:16:10;4.20;99.90
35381;DHT22;21486;51.916;8.378;2024-03-17T03:18:36;4.20;99.90
35381;DHT22;21486;51.916;8.378;2024-03-17T03:21:03;4.20;99.90
35381;DHT22;21486;51.916;8.378;2024-03-17T03:23:29;4.20;99.90
35381;DHT22;21486;51.916;8.378;2024-03-17T03:25:56;4.20;99.90
35381;DHT22;21486;51.916;8.378;2024-03-17T03:28:25;4.20;99.90
35381;DHT22;21486;51.916;8.378;2024-03-17T03:30:52;4.20;99.90
35381;DHT22;21486;51.916;8.378;2024-03-17T03:33:21;4.20;99.90
35381;DHT22;21486;51.916;8.378;2024-03-17T03:35:47;4.10;99.90
35381;DHT22;21486;51.916;8.378;2024-03-17T03:38:14;4.10;99.90
35381;DHT22;21486;51.916;8.378;2024-03-17T03:40:42;4.10;99.90
35381;DHT22;21486;51.916;8.378;2024-03-17T03:43:09;4.00;99.90
35381;DHT22;21486;51.916;8.378;2024-03-17T03:45:35;4.00;99.90
35381;DHT22;21486;51.916;8.378;2024-03-17T03:48:01;4.10;99.90
35381;DHT22;21486;51.916;8.378;2024-03-17T03:50:28;4.00;99.90
35381;DHT22;21486;51.916;8.378;2024-03-17T03:52:54;4.10;99.90
35381;DHT22;21486;51.916;8.378;2024-03-17T03:55:20;4.00;99.90
35381;DHT22;21486;51.916;8.378;2024-03-17T03:57:45;4.10;99.90
35381;DHT22;21486;51.916;8.378;2024-03-17T04:00:16;4.20;99.90
35381;DHT22;21486;51.916;8.378;2024-03-17T04:02:44;4.10;99.90
35381;DHT22;21486;51.916;8.378;2024-03-17T04:05:10;4.00;99.90
35381;DHT22;21486;51.916;8.378;2024-03-17T04:07:39;4.00;99.90
35381;DHT22;21486;51.916;8.378;2024-03-17T04:10:05;3.90;99.90
35381;DHT22;21486;51.916;8.378;2024-03-17T04:12:31;3.90;99.90
35381;DHT22;21486;51.916;8.378;2024-03-17T04:14:57;3.90;99.90
35381;DHT22;21486;51.916;8.378;2024-03-17T04:17:23;3.90;99.90
35381;DHT22;21486;51.916;8.378;2024-03-17T04:19:52;3.80;99.90
35381;DHT22;21486;51.916;8.378;2024-03-17T04:22:19;3.80;99.90
35381;DHT22;21486;51.916;8.378;2024-03-17T04:24:45;3.80;99.90
35381;DHT22;21486;51.916;8.378;2024-03-17T04:27:11;3.80;99.90
35381;DHT22;21486;51.916;8.378;2024-03-17T04:29:37;3.80;99.90
35381;DHT22;21486;51.916;8.378;2024-03-17T04:32:02;3.70;99.90
35381;DHT22;21486;51.916;8.378;2024-03-17T04:34:30;3.70;99.90
35381;DHT22;21486;51.916;8.378;2024-03-17T04:36:56;3.70;99.90
35381;DHT22;21486;51.916;8.378;2024-03-17T04:39:22;3.70;99.90
35381;DHT22;21486;51.916;8.378;2024-03-17T04:41:48;3.70;99.90
35381;DHT22;21486;51.916;8.378;2024-03-17T04:44:15;3.70;99.90
35381;DHT22;21486;51.916;8.378;2024-03-17T04:46:41;3.70;99.90
35381;DHT22;21486;51.916;8.378;2024-03-17T04:49:06;3.70;99.90
35381;DHT22;21486;51.916;8.378;2024-03-17T04:51:33;3.70;99.90
35381;DHT22;21486;51.916;8.378;2024-03-17T04:53:59;3.70;99.90
35381;DHT22;21486;51.916;8.378;2024-03-17T04:56:25;3.70;99.90
35381;DHT22;21486;51.916;8.378;2024-03-17T04:58:50;3.80;99.90
35381;DHT22;21486;51.916;8.378;2024-03-17T05:01:16;3.80;99.90
35381;DHT22;21486;51.916;8.378;2024-03-17T05:03:42;3.80;99.90
35381;DHT22;21486;51.916;8.378;2024-03-17T05:06:07;3.80;99.90
35381;DHT22;21486;51.916;8.378;2024-03-17T05:08:33;3.80;99.90
35381;DHT22;21486;51.916;8.378;2024-03-17T05:11:03;3.80;99.90
35381;DHT22;21486;51.916;8.378;2024-03-17T05:13:33;3.90;99.90
35381;DHT22;21486;51.916;8.378;2024-03-17T05:16:02;3.90;99.90
35381;DHT22;21486;51.916;8.378;2024-03-17T05:18:29;3.90;99.90
35381;DHT22;21486;51.916;8.378;2024-03-17T05:21:05;4.00;99.90
35381;DHT22;21486;51.916;8.378;2024-03-17T05:23:32;4.00;99.90
35381;DHT22;21486;51.916;8.378;2024-03-17T05:25:58;4.00;99.90
35381;DHT22;21486;51.916;8.378;2024-03-17T05:28:26;4.00;99.90
35381;DHT22;21486;51.916;8.378;2024-03-17T05:30:52;4.00;99.90
35381;DHT22;21486;51.916;8.378;2024-03-17T05:33:21;4.00;99.90
35381;DHT22;21486;51.916;8.378;2024-03-17T05:35:57;4.00;99.90
35381;DHT22;21486;51.916;8.378;2024-03-17T05:38:27;4.00;99.90
35381;DHT22;21486;51.916;8.378;2024-03-17T05:40:59;4.00;99.90
35381;DHT22;21486;51.916;8.378;2024-03-17T05:43:32;4.00;99.90
35381;DHT22;21486;51.916;8.378;2024-03-17T05:46:01;4.10;99.90
35381;DHT22;21486;51.916;8.378;2024-03-17T05:48:28;4.10;99.90
35381;DHT22;21486;51.916;8.378;2024-03-17T05:50:53;4.00;99.90
35381;DHT22;21486;51.916;8.378;2024-03-17T05:53:20;4.00;99.90
35381;DHT22;21486;51.916;8.378;2024-03-17T05:55:46;4.00;99.90
35381;DHT22;21486;51.916;8.378;2024-03-17T05:58:12;4.10;99.90
35381;DHT22;21486;51.916;8.378;2024-03-17T06:00:39;4.10;99.90
35381;DHT22;21486;51.916;8.378;2024-03-17T06:03:05;4.10;99.90
35381;DHT22;21486;51.916;8.378;2024-03-17T06:05:35;4.10;99.90
35381;DHT22;21486;51.916;8.378;2024-03-17T06:08:02;4.10;99.90
35381;DHT22;21486;51.916;8.378;2024-03-17T06:10:28;4.00;99.90
35381;DHT22;21486;51.916;8.378;2024-03-17T06:12:55;4.10;99.90
35381;DHT22;21486;51.916;8.378;2024-03-17T06:15:21;4.10;99.90
35381;DHT22;21486;51.916;8.378;2024-03-17T06:17:49;4.20;99.90
35381;DHT22;21486;51.916;8.378;2024-03-17T06:20:15;4.20;99.90
35381;DHT22;21486;51.916;8.378;2024-03-17T06:22:41;4.20;99.90
35381;DHT22;21486;51.916;8.378;2024-03-17T06:25:07;4.20;99.90
35381;DHT22;21486;51.916;8.378;2024-03-17T06:27:32;4.10;99.90
35381;DHT22;21486;51.916;8.378;2024-03-17T06:30:00;4.10;99.90
35381;DHT22;21486;51.916;8.378;2024-03-17T06:32:32;4.20;99.90
35381;DHT22;21486;51.916;8.378;2024-03-17T06:34:58;4.20;99.90
35381;DHT22;21486;51.916;8.378;2024-03-17T06:37:24;4.30;99.90
35381;DHT22;21486;51.916;8.378;2024-03-17T06:39:50;4.40;99.90
35381;DHT22;21486;51.916;8.378;2024-03-17T06:42:16;4.50;99.90
35381;DHT22;21486;51.916;8.378;2024-03-17T06:44:41;4.50;99.90
35381;DHT22;21486;51.916;8.378;2024-03-17T06:47:07;4.60;99.90
35381;DHT22;21486;51.916;8.378;2024-03-17T06:49:32;4.60;99.90
35381;DHT22;21486;51.916;8.378;2024-03-17T06:51:58;4.60;99.90
35381;DHT22;21486;51.916;8.378;2024-03-17T06:54:24;4.70;99.90
35381;DHT22;21486;51.916;8.378;2024-03-17T06:56:49;4.70;99.90
35381;DHT22;21486;51.916;8.378;2024-03-17T06:59:16;4.70;99.90
35381;DHT22;21486;51.916;8.378;2024-03-17T07:01:41;4.70;99.90
35381;DHT22;21486;51.916;8.378;2024-03-17T07:04:06;4.70;99.90
35381;DHT22;21486;51.916;8.378;2024-03-17T07:06:32;4.70;99.90
35381;DHT22;21486;51.916;8.378;2024-03-17T07:08:57;4.70;99.90
35381;DHT22;21486;51.916;8.378;2024-03-17T07:11:23;4.80;99.90
35381;DHT22;21486;51.916;8.378;2024-03-17T07:13:49;4.90;99.90
35381;DHT22;21486;51.916;8.378;2024-03-17T07:16:18;5.10;99.90
35381;DHT22;21486;51.916;8.378;2024-03-17T07:18:44;5.20;99.90
35381;DHT22;21486;51.916;8.378;2024-03-17T07:21:10;5.30;99.90
35381;DHT22;21486;51.916;8.378;2024-03-17T07:23:36;5.40;99.90
35381;DHT22;21486;51.916;8.378;2024-03-17T07:26:02;5.40;99.90
35381;DHT22;21486;51.916;8.378;2024-03-17T07:28:30;5.60;99.90
35381;DHT22;21486;51.916;8.378;2024-03-17T07:30:57;5.60;99.90
35381;DHT22;21486;51.916;8.378;2024-03-17T07:33:24;5.50;99.90
35381;DHT22;21486;51.916;8.378;2024-03-17T07:35:53;5.70;99.90
35381;DHT22;21486;51.916;8.378;2024-03-17T07:38:20;5.90;99.90
35381;DHT22;21486;51.916;8.378;2024-03-17T07:40:56;6.10;99.90
35381;DHT22;21486;51.916;8.378;2024-03-17T07:43:23;6.20;99.90
35381;DHT22;21486;51.916;8.378;2024-03-17T07:45:57;6.40;99.90
35381;DHT22;21486;51.916;8.378;2024-03-17T07:48:23;6.50;99.90
35381;DHT22;21486;51.916;8.378;2024-03-17T07:50:59;6.80;99.90
35381;DHT22;21486;51.916;8.378;2024-03-17T07:53:26;6.70;99.90
35381;DHT22;21486;51.916;8.378;2024-03-17T07:55:59;6.60;99.90
35381;DHT22;21486;51.916;8.378;2024-03-17T07:58:25;6.60;99.90
35381;DHT22;21486;51.916;8.378;2024-03-17T08:00:52;6.50;99.90
35381;DHT22;21486;51.916;8.378;2024-03-17T08:03:18;6.60;99.90
35381;DHT22;21486;51.916;8.378;2024-03-17T08:05:49;6.70;99.90
35381;DHT22;21486;51.916;8.378;2024-03-17T08:08:15;6.70;99.90
35381;DHT22;21486;51.916;8.378;2024-03-17T08:10:40;6.80;99.90
35381;DHT22;21486;51.916;8.378;2024-03-17T08:13:06;6.80;99.90
35381;DHT22;21486;51.916;8.378;2024-03-17T08:15:34;6.90;99.90
35381;DHT22;21486;51.916;8.378;2024-03-17T08:17:59;7.00;99.90
35381;DHT22;21486;51.916;8.378;2024-03-17T08:20:25;7.10;99.90
35381;DHT22;21486;51.916;8.378;2024-03-17T08:22:50;7.40;99.90
35381;DHT22;21486;51.916;8.378;2024-03-17T08:25:16;7.50;99.90
35381;DHT22;21486;51.916;8.378;2024-03-17T08:27:41;7.60;99.90
35381;DHT22;21486;51.916;8.378;2024-03-17T08:30:09;7.80;99.90
35381;DHT22;21486;51.916;8.378;2024-03-17T08:32:35;7.80;99.90
35381;DHT22;21486;51.916;8.378;2024-03-17T08:35:00;7.90;99.90
35381;DHT22;21486;51.916;8.378;2024-03-17T08:37:26;8.00;99.90
35381;DHT22;21486;51.916;8.378;2024-03-17T08:39:52;8.20;99.90
35381;DHT22;21486;51.916;8.378;2024-03-17T08:42:18;8.50;99.90
35381;DHT22;21486;51.916;8.378;2024-03-17T08:44:46;8.70;99.90
35381;DHT22;21486;51.916;8.378;2024-03-17T08:47:11;8.80;99.90
35381;DHT22;21486;51.916;8.378;2024-03-17T08:49:37;8.90;99.90
35381;DHT22;21486;51.916;8.378;2024-03-17T08:52:03;9.10;99.90
35381;DHT22;21486;51.916;8.378;2024-03-17T08:54:28;9.20;99.90
35381;DHT22;21486;51.916;8.378;2024-03-17T08:56:53;9.50;99.90
35381;DHT22;21486;51.916;8.378;2024-03-17T08:59:19;9.70;99.90
35381;DHT22;21486;51.916;8.378;2024-03-17T09:01:44;10.00;99.90
35381;DHT22;21486;51.916;8.378;2024-03-17T09:04:10;10.10;99.90
35381;DHT22;21486;51.916;8.378;2024-03-17T09:06:36;10.50;99.90
35381;DHT22;21486;51.916;8.378;2024-03-17T09:09:02;10.80;99.90
35381;DHT22;21486;51.916;8.378;2024-03-17T09:11:28;11.00;99.80
35381;DHT22;21486;51.916;8.378;2024-03-17T09:13:54;11.60;95.80
35381;DHT22;21486;51.916;8.378;2024-03-17T09:16:20;11.80;92.90
35381;DHT22;21486;51.916;8.378;2024-03-17T09:18:48;12.10;91.90
35381;DHT22;21486;51.916;8.378;2024-03-17T09:21:16;12.40;90.60
35381;DHT22;21486;51.916;8.378;2024-03-17T09:23:43;12.30;90.20
35381;DHT22;21486;51.916;8.378;2024-03-17T09:26:09;12.60;90.00
35381;DHT22;21486;51.916;8.378;2024-03-17T09:28:37;13.20;79.20
35381;DHT22;21486;51.916;8.378;2024-03-17T09:31:02;13.80;75.30
35381;DHT22;21486;51.916;8.378;2024-03-17T09:33:30;13.70;75.10
35381;DHT22;21486;51.916;8.378;2024-03-17T09:36:02;14.10;71.50
35381;DHT22;21486;51.916;8.378;2024-03-17T09:38:29;14.70;68.80
35381;DHT22;21486;51.916;8.378;2024-03-17T09:40:55;14.30;67.20
35381;DHT22;21486;51.916;8.378;2024-03-17T09:43:26;13.70;70.00
35381;DHT22;21486;51.916;8.378;2024-03-17T09:45:53;14.50;68.90
35381;DHT22;21486;51.916;8.378;2024-03-17T09:48:23;15.00;67.40
35381;DHT22;21486;51.916;8.378;2024-03-17T09:50:55;15.90;63.30
35381;DHT22;21486;51.916;8.378;2024-03-17T09:53:29;15.50;66.80
35381;DHT22;21486;51.916;8.378;2024-03-17T09:55:58;15.20;65.20
35381;DHT22;21486;51.916;8.378;2024-03-17T09:58:25;14.90;64.00
35381;DHT22;21486;51.916;8.378;2024-03-17T10:00:50;14.00;67.40
35381;DHT22;21486;51.916;8.378;2024-03-17T10:06:15;14.20;66.10
35381;DHT22;21486;51.916;8.378;2024-03-17T10:08:48;14.90;65.90
35381;DHT22;21486;51.916;8.378;2024-03-17T10:11:16;15.20;65.30
35381;DHT22;21486;51.916;8.378;2024-03-17T10:13:46;15.70;63.80
35381;DHT22;21486;51.916;8.378;2024-03-17T10:16:26;15.90;62.80
35381;DHT22;21486;51.916;8.378;2024-03-17T10:24:21;14.10;67.60
35381;DHT22;21486;51.916;8.378;2024-03-17T10:26:49;13.90;68.50
35381;DHT22;21486;51.916;8.378;2024-03-17T10:29:20;14.00;68.20
35381;DHT22;21486;51.916;8.378;2024-03-17T10:31:48;14.00;67.70
35381;DHT22;21486;51.916;8.378;2024-03-17T10:34:16;14.10;67.90
35381;DHT22;21486;51.916;8.378;2024-03-17T10:36:46;14.30;64.80
35381;DHT22;21486;51.916;8.378;2024-03-17T10:39:26;15.20;63.80
35381;DHT22;21486;51.916;8.378;2024-03-17T10:41:57;14.60;64.10
35381;DHT22;21486;51.916;8.378;2024-03-17T10:44:23;15.30;62.60
35381;DHT22;21486;51.916;8.378;2024-03-17T10:46:49;14.80;61.80
35381;DHT22;21486;51.916;8.378;2024-03-17T10:49:17;15.00;61.00
35381;DHT22;21486;51.916;8.378;2024-03-17T10:51:44;14.50;63.60
35381;DHT22;21486;51.916;8.378;2024-03-17T10:54:23;14.30;63.70
35381;DHT22;21486;51.916;8.378;2024-03-17T10:56:52;14.90;62.60
35381;DHT22;21486;51.916;8.378;2024-03-17T10:59:21;15.30;60.50
35381;DHT22;21486;51.916;8.378;2024-03-17T11:01:50;15.40;58.90
35381;DHT22;21486;51.916;8.378;2024-03-17T11:04:17;15.90;60.40
35381;DHT22;21486;51.916;8.378;2024-03-17T11:06:42;16.50;58.50
35381;DHT22;21486;51.916;8.378;2024-03-17T11:09:13;17.10;57.60
35381;DHT22;21486;51.916;8.378;2024-03-17T11:11:40;16.10;55.90
35381;DHT22;21486;51.916;8.378;2024-03-17T11:14:17;14.60;58.50
35381;DHT22;21486;51.916;8.378;2024-03-17T11:16:45;14.50;61.80
35381;DHT22;21486;51.916;8.378;2024-03-17T11:19:15;14.10;62.10
35381;DHT22;21486;51.916;8.378;2024-03-17T11:21:41;14.30;64.20
35381;DHT22;21486;51.916;8.378;2024-03-17T11:24:19;15.00;61.70
35381;DHT22;21486;51.916;8.378;2024-03-17T11:26:44;14.60;60.80
35381;DHT22;21486;51.916;8.378;2024-03-17T11:29:27;15.00;60.60
35381;DHT22;21486;51.916;8.378;2024-03-17T11:31:53;15.10;60.20
35381;DHT22;21486;51.916;8.378;2024-03-17T11:34:37;14.80;59.50
35381;DHT22;21486;51.916;8.378;2024-03-17T11:37:05;13.90;62.10
35381;DHT22;21486;51.916;8.378;2024-03-17T11:39:54;13.50;63.90
35381;DHT22;21486;51.916;8.378;2024-03-17T11:42:26;13.40;64.50
35381;DHT22;21486;51.916;8.378;2024-03-17T11:45:00;13.50;65.20
35381;DHT22;21486;51.916;8.378;2024-03-17T11:47:36;14.60;64.20
35381;DHT22;21486;51.916;8.378;2024-03-17T11:50:04;15.20;62.80
35381;DHT22;21486;51.916;8.378;2024-03-17T11:52:31;15.40;60.70
35381;DHT22;21486;51.916;8.378;2024-03-17T11:54:56;15.30;59.80
35381;DHT22;21486;51.916;8.378;2024-03-17T11:57:24;15.20;60.40
35381;DHT22;21486;51.916;8.378;2024-03-17T11:59:50;14.70;61.90
35381;DHT22;21486;51.916;8.378;2024-03-17T12:02:20;14.70;61.40
35381;DHT22;21486;51.916;8.378;2024-03-17T12:04:46;14.60;61.30
35381;DHT22;21486;51.916;8.378;2024-03-17T12:07:15;14.80;61.70
35381;DHT22;21486;51.916;8.378;2024-03-17T12:09:46;14.20;62.10
35381;DHT22;21486;51.916;8.378;2024-03-17T12:12:23;13.30;63.20
35381;DHT22;21486;51.916;8.378;2024-03-17T12:14:49;13.50;65.90
35381;DHT22;21486;51.916;8.378;2024-03-17T12:17:21;13.80;66.30
35381;DHT22;21486;51.916;8.378;2024-03-17T12:19:46;13.90;63.30
35381;DHT22;21486;51.916;8.378;2024-03-17T12:22:19;14.00;65.70
35381;DHT22;21486;51.916;8.378;2024-03-17T12:24:48;13.70;65.40
35381;DHT22;21486;51.916;8.378;2024-03-17T12:27:24;13.60;65.60
35381;DHT22;21486;51.916;8.378;2024-03-17T12:29:54;13.80;63.90
35381;DHT22;21486;51.916;8.378;2024-03-17T12:34:51;14.10;63.10
35381;DHT22;21486;51.916;8.378;2024-03-17T12:37:22;14.10;65.20
35381;DHT22;21486;51.916;8.378;2024-03-17T12:39:49;14.30;66.10
35381;DHT22;21486;51.916;8.378;2024-03-17T12:42:16;14.30;64.20
35381;DHT22;21486;51.916;8.378;2024-03-17T12:44:53;14.70;62.60
35381;DHT22;21486;51.916;8.378;2024-03-17T12:47:20;13.70;64.70
35381;DHT22;21486;51.916;8.378;2024-03-17T12:49:51;13.80;66.30
35381;DHT22;21486;51.916;8.378;2024-03-17T12:52:21;13.70;67.20
35381;DHT22;21486;51.916;8.378;2024-03-17T12:54:59;13.40;66.60
35381;DHT22;21486;51.916;8.378;2024-03-17T12:57:44;13.40;67.00
35381;DHT22;21486;51.916;8.378;2024-03-17T13:00:29;13.50;66.50
35381;DHT22;21486;51.916;8.378;2024-03-17T13:03:41;13.20;67.20
35381;DHT22;21486;51.916;8.378;2024-03-17T13:06:13;13.10;67.70
35381;DHT22;21486;51.916;8.378;2024-03-17T13:08:46;13.00;69.40
35381;DHT22;21486;51.916;8.378;2024-03-17T13:11:12;13.10;70.40
35381;DHT22;21486;51.916;8.378;2024-03-17T13:13:37;13.10;69.10
35381;DHT22;21486;51.916;8.378;2024-03-17T13:16:03;13.00;68.70
35381;DHT22;21486;51.916;8.378;2024-03-17T13:18:29;13.00;70.60
35381;DHT22;21486;51.916;8.378;2024-03-17T13:20:54;13.20;69.80
35381;DHT22;21486;51.916;8.378;2024-03-17T13:23:22;13.10;69.70
35381;DHT22;21486;51.916;8.378;2024-03-17T13:25:49;13.10;69.60
35381;DHT22;21486;51.916;8.378;2024-03-17T13:28:15;13.30;68.50
35381;DHT22;21486;51.916;8.378;2024-03-17T13:30:40;13.10;69.20
35381;DHT22;21486;51.916;8.378;2024-03-17T13:33:07;13.20;68.80
35381;DHT22;21486;51.916;8.378;2024-03-17T13:35:37;13.10;69.10
35381;DHT22;21486;51.916;8.378;2024-03-17T13:38:05;13.20;70.20
35381;DHT22;21486;51.916;8.378;2024-03-17T13:40:33;13.10;69.30
35381;DHT22;21486;51.916;8.378;2024-03-17T13:42:59;12.90;70.60
35381;DHT22;21486;51.916;8.378;2024-03-17T13:45:26;13.00;70.70
35381;DHT22;21486;51.916;8.378;2024-03-17T13:47:57;13.00;69.70
35381;DHT22;21486;51.916;8.378;2024-03-17T13:50:23;12.90;70.40
35381;DHT22;21486;51.916;8.378;2024-03-17T13:52:49;12.90;70.60
35381;DHT22;21486;51.916;8.378;2024-03-17T13:55:19;13.20;70.90
35381;DHT22;21486;51.916;8.378;2024-03-17T13:57:50;13.40;69.90
35381;DHT22;21486;51.916;8.378;2024-03-17T14:00:26;13.40;68.70
35381;DHT22;21486;51.916;8.378;2024-03-17T14:02:52;13.10;69.70
35381;DHT22;21486;51.916;8.378;2024-03-17T14:05:21;13.10;69.40
35381;DHT22;21486;51.916;8.378;2024-03-17T14:07:47;12.80;71.60
35381;DHT22;21486;51.916;8.378;2024-03-17T14:10:17;13.00;71.30
35381;DHT22;21486;51.916;8.378;2024-03-17T14:12:43;13.10;72.40
35381;DHT22;21486;51.916;8.378;2024-03-17T14:15:11;13.20;70.60
35381;DHT22;21486;51.916;8.378;2024-03-17T14:17:46;13.40;70.50
35381;DHT22;21486;51.916;8.378;2024-03-17T14:20:13;13.30;71.50
35381;DHT22;21486;51.916;8.378;2024-03-17T14:22:40;13.20;73.10
35381;DHT22;21486;51.916;8.378;2024-03-17T14:25:08;13.30;73.00
35381;DHT22;21486;51.916;8.378;2024-03-17T14:27:36;13.20;71.80
35381;DHT22;21486;51.916;8.378;2024-03-17T14:30:01;13.30;71.10
35381;DHT22;21486;51.916;8.378;2024-03-17T14:32:27;13.20;72.60
35381;DHT22;21486;51.916;8.378;2024-03-17T14:34:53;13.20;71.20
35381;DHT22;21486;51.916;8.378;2024-03-17T14:37:18;13.20;72.80
35381;DHT22;21486;51.916;8.378;2024-03-17T14:39:44;13.20;73.00
35381;DHT22;21486;51.916;8.378;2024-03-17T14:42:10;13.30;73.30
35381;DHT22;21486;51.916;8.378;2024-03-17T14:44:36;13.50;72.90
35381;DHT22;21486;51.916;8.378;2024-03-17T14:47:02;13.30;73.80
35381;DHT22;21486;51.916;8.378;2024-03-17T14:49:30;13.20;72.40
35381;DHT22;21486;51.916;8.378;2024-03-17T14:51:56;13.10;74.20
35381;DHT22;21486;51.916;8.378;2024-03-17T14:54:22;12.80;74.70
35381;DHT22;21486;51.916;8.378;2024-03-17T14:56:48;12.80;76.00
35381;DHT22;21486;51.916;8.378;2024-03-17T14:59:14;12.90;75.00
35381;DHT22;21486;51.916;8.378;2024-03-17T15:01:44;13.10;75.70
35381;DHT22;21486;51.916;8.378;2024-03-17T15:04:10;13.00;75.00
35381;DHT22;21486;51.916;8.378;2024-03-17T15:06:36;12.80;76.90
35381;DHT22;21486;51.916;8.378;2024-03-17T15:09:02;13.00;77.00
35381;DHT22;21486;51.916;8.378;2024-03-17T15:11:28;13.00;77.00
35381;DHT22;21486;51.916;8.378;2024-03-17T15:13:53;12.80;77.30
35381;DHT22;21486;51.916;8.378;2024-03-17T15:16:19;12.90;77.30
35381;DHT22;21486;51.916;8.378;2024-03-17T15:18:44;13.00;77.10
35381;DHT22;21486;51.916;8.378;2024-03-17T15:21:10;13.00;78.30
35381;DHT22;21486;51.916;8.378;2024-03-17T15:23:35;13.00;77.10
35381;DHT22;21486;51.916;8.378;2024-03-17T15:26:04;12.90;78.10
35381;DHT22;21486;51.916;8.378;2024-03-17T15:28:36;12.90;78.20
35381;DHT22;21486;51.916;8.378;2024-03-17T15:31:05;12.90;78.60
35381;DHT22;21486;51.916;8.378;2024-03-17T15:33:32;12.90;79.70
35381;DHT22;21486;51.916;8.378;2024-03-17T15:36:01;12.90;79.50
35381;DHT22;21486;51.916;8.378;2024-03-17T15:38:27;12.90;81.00
35381;DHT22;21486;51.916;8.378;2024-03-17T15:40:52;12.70;80.40
35381;DHT22;21486;51.916;8.378;2024-03-17T15:43:18;12.80;81.00
35381;DHT22;21486;51.916;8.378;2024-03-17T15:45:43;12.90;80.10
35381;DHT22;21486;51.916;8.378;2024-03-17T15:48:09;12.70;81.20
35381;DHT22;21486;51.916;8.378;2024-03-17T15:50:35;12.60;83.70
35381;DHT22;21486;51.916;8.378;2024-03-17T15:53:01;12.60;83.40
35381;DHT22;21486;51.916;8.378;2024-03-17T15:55:26;12.50;83.80